Time;durP1;ratioP1;P1;durP2;ratioP2;P2;SDS_P1;SDS_P2;PMS_P1;PMS_P2;Temp;Humidity;BMP_temperature;BMP_pressure;BME280_temperature;BME280_humidity;BME280_pressure;Samples;Min_cycle;Max_cycle;Signal;HPM_P1;HPM_P2
2021/11/27 00:00:54;;;;;;;4.20;3.80;;;;;;;4.60;69.33;96107.81;5022635;27;103086;-63
2021/11/27 00:03:27;;;;;;;3.73;3.43;;;;;;;4.69;68.89;96099.13;5026838;27;103203;-63
2021/11/27 00:05:56;;;;;;;3.88;3.50;;;;;;;4.75;68.29;96095.97;5021503;27;103249;-63
2021/11/27 00:08:25;;;;;;;3.90;3.60;;;;;;;4.76;68.84;96102.03;5027563;27;102703;-66
2021/11/27 00:10:55;;;;;;;3.50;3.20;;;;;;;4.79;68.88;96102.59;5022081;27;103354;-63
2021/11/27 00:13:24;;;;;;;4.10;3.70;;;;;;;4.84;67.77;96097.78;5020233;27;103257;-63
2021/11/27 00:15:52;;;;;;;3.72;3.42;;;;;;;4.96;68.39;96095.84;5026505;27;103187;-64
2021/11/27 00:18:25;;;;;;;4.18;3.38;;;;;;;4.83;67.92;96087.47;5024121;27;102692;-64
2021/11/27 00:20:59;;;;;;;3.75;3.45;;;;;;;5.10;67.35;96085.78;5024478;27;103160;-66
2021/11/27 00:23:30;;;;;;;3.50;3.20;;;;;;;5.14;67.24;96083.69;5025233;27;103995;-66
2021/11/27 00:25:58;;;;;;;3.90;3.53;;;;;;;4.82;68.32;96075.34;5011684;27;103965;-66
2021/11/27 00:28:26;;;;;;;4.00;3.60;;;;;;;4.89;68.08;96082.47;5025299;27;102787;-67
2021/11/27 00:30:57;;;;;;;4.00;3.33;;;;;;;5.09;67.32;96081.50;5009309;27;102971;-66
2021/11/27 00:33:27;;;;;;;3.90;3.50;;;;;;;4.97;67.59;96076.56;5022524;27;103219;-64
2021/11/27 00:35:56;;;;;;;3.65;3.35;;;;;;;4.80;68.24;96078.06;5008467;27;104184;-64
2021/11/27 00:38:25;;;;;;;3.90;3.58;;;;;;;4.93;67.87;96076.03;5003668;27;102976;-64
2021/11/27 00:40:54;;;;;;;3.90;3.50;;;;;;;4.88;68.37;96078.22;5020920;27;102778;-64
2021/11/27 00:43:25;;;;;;;3.50;3.20;;;;;;;4.83;68.72;96072.56;5011491;27;103248;-66
2021/11/27 00:45:53;;;;;;;4.93;3.45;;;;;;;4.90;68.66;96068.44;5010276;27;103220;-66
2021/11/27 00:48:23;;;;;;;4.10;3.70;;;;;;;5.02;68.21;96072.56;5024164;27;102763;-64
2021/11/27 00:50:57;;;;;;;4.10;3.70;;;;;;;4.99;68.62;96072.03;5003843;27;103831;-64
2021/11/27 00:53:26;;;;;;;4.10;3.70;;;;;;;4.86;69.14;96066.22;5021430;27;103601;-66
2021/11/27 00:55:54;;;;;;;4.45;3.70;;;;;;;4.90;68.78;96057.97;5010899;27;103207;-66
2021/11/27 00:58:23;;;;;;;4.18;3.78;;;;;;;4.89;68.85;96055.50;5005842;27;102816;-66
2021/11/27 01:00:55;;;;;;;4.88;3.97;;;;;;;4.83;69.11;96062.09;5003069;27;103131;-63
2021/11/27 01:03:27;;;;;;;5.13;4.30;;;;;;;4.78;69.56;96048.63;5021274;27;103566;-64
2021/11/27 01:05:59;;;;;;;4.00;3.60;;;;;;;4.84;69.27;96047.25;5005015;27;103333;-64
2021/11/27 01:08:29;;;;;;;4.18;3.78;;;;;;;4.83;69.33;96041.19;5002531;27;102931;-64
2021/11/27 01:11:03;;;;;;;4.23;3.87;;;;;;;4.78;69.35;96040.78;5013887;27;104170;-64
2021/11/27 01:13:32;;;;;;;4.20;3.80;;;;;;;5.00;69.26;96043.09;5004096;27;103544;-67
2021/11/27 01:16:01;;;;;;;4.30;3.90;;;;;;;4.95;68.89;96036.63;5000388;27;103320;-67
2021/11/27 01:18:29;;;;;;;4.18;3.80;;;;;;;4.63;69.20;96036.97;5007785;27;102917;-64
2021/11/27 01:21:02;;;;;;;4.30;3.90;;;;;;;4.75;69.50;96038.44;5007570;27;102760;-64
2021/11/27 01:23:32;;;;;;;5.20;4.15;;;;;;;4.82;69.62;96029.09;5002935;27;103326;-66
2021/11/27 01:26:00;;;;;;;4.15;3.83;;;;;;;5.07;69.23;96025.03;5021114;27;103348;-67
2021/11/27 01:28:28;;;;;;;4.68;4.28;;;;;;;4.69;70.13;96018.06;5005104;27;102698;-66
2021/11/27 01:30:58;;;;;;;4.40;3.93;;;;;;;4.49;71.02;96011.22;5010683;27;102794;-64
2021/11/27 01:33:30;;;;;;;4.35;3.95;;;;;;;4.58;71.34;96013.81;5009433;27;105066;-63
2021/11/27 01:36:04;;;;;;;5.00;4.22;;;;;;;4.62;70.82;96006.53;5006031;27;103196;-64
2021/11/27 01:38:34;;;;;;;4.70;4.20;;;;;;;4.65;71.13;96012.31;5025038;27;102727;-64
2021/11/27 01:41:04;;;;;;;4.30;3.90;;;;;;;4.61;71.08;96010.94;5001637;27;102776;-64
2021/11/27 01:43:34;;;;;;;4.20;3.80;;;;;;;4.44;71.87;96009.00;5006332;27;104210;-63
2021/11/27 01:46:04;;;;;;;4.28;3.75;;;;;;;4.64;71.43;96009.81;5006541;27;103167;-64
2021/11/27 01:48:33;;;;;;;4.50;4.10;;;;;;;4.63;71.50;96009.00;5008137;27;103038;-64
2021/11/27 01:51:06;;;;;;;4.73;4.33;;;;;;;4.52;71.67;96021.41;5014538;27;102984;-64
2021/11/27 01:53:38;;;;;;;4.38;3.97;;;;;;;4.59;71.64;96017.25;5012007;27;103347;-63
2021/11/27 01:56:10;;;;;;;5.20;4.70;;;;;;;4.52;72.17;96010.94;5029051;27;103219;-63
2021/11/27 01:58:39;;;;;;;4.82;4.43;;;;;;;4.53;72.36;96008.19;5005771;27;103020;-63
2021/11/27 02:01:12;;;;;;;4.78;4.30;;;;;;;4.48;72.52;96005.16;5005641;27;103190;-67
2021/11/27 02:03:41;;;;;;;4.90;4.45;;;;;;;4.75;71.95;95999.22;5004027;27;104399;-63
2021/11/27 02:06:17;;;;;;;4.60;4.20;;;;;;;4.43;73.22;95996.91;5012403;27;103303;-66
2021/11/27 02:08:47;;;;;;;4.70;4.20;;;;;;;4.54;72.82;95988.94;5024538;27;102965;-65
2021/11/27 02:11:20;;;;;;;4.50;4.10;;;;;;;4.56;73.29;95987.00;5006626;27;102930;-66
2021/11/27 02:13:50;;;;;;;4.55;4.15;;;;;;;4.62;72.50;95985.63;5009181;27;103496;-63
2021/11/27 02:16:18;;;;;;;4.88;4.38;;;;;;;4.68;72.86;95975.44;5021284;27;103367;-63
2021/11/27 02:18:47;;;;;;;4.40;4.00;;;;;;;4.61;72.99;95981.34;5031036;27;102869;-63
2021/11/27 02:21:19;;;;;;;4.70;4.30;;;;;;;4.48;73.87;95972.97;5022359;27;102734;-66
2021/11/27 02:23:49;;;;;;;4.60;4.20;;;;;;;4.77;72.83;95971.16;5033049;27;104394;-63
2021/11/27 02:26:20;;;;;;;4.47;4.07;;;;;;;4.69;72.95;95968.38;5023506;27;103581;-63
2021/11/27 02:28:56;;;;;;;4.75;4.30;;;;;;;4.51;73.80;95962.22;5003833;27;103063;-62
2021/11/27 02:31:25;;;;;;;4.40;4.00;;;;;;;4.83;72.64;95954.06;5005022;27;103884;-63
2021/11/27 02:33:55;;;;;;;4.18;3.80;;;;;;;4.81;73.03;95956.81;5009622;27;104039;-63
2021/11/27 02:36:27;;;;;;;4.35;3.97;;;;;;;4.78;73.35;95961.47;5023962;27;103213;-63
2021/11/27 02:38:57;;;;;;;4.13;3.72;;;;;;;4.61;73.66;95960.41;5012927;27;102826;-66
2021/11/27 02:41:26;;;;;;;4.10;3.70;;;;;;;4.73;73.64;95961.09;5006746;27;102926;-66
2021/11/27 02:43:56;;;;;;;4.05;3.72;;;;;;;4.67;74.06;95962.47;5013734;27;104613;-66
2021/11/27 02:46:25;;;;;;;4.00;3.60;;;;;;;4.75;73.73;95957.38;5022234;27;103267;-65
2021/11/27 02:48:53;;;;;;;4.13;3.72;;;;;;;4.89;73.28;95945.63;5024407;27;102730;-66
2021/11/27 02:51:21;;;;;;;4.07;3.67;;;;;;;4.92;73.23;95940.94;5025426;27;103298;-66
2021/11/27 02:53:51;;;;;;;4.40;3.60;;;;;;;4.73;74.23;95950.63;5007651;27;105267;-63
2021/11/27 02:56:19;;;;;;;3.95;3.58;;;;;;;4.81;73.67;95938.50;5025363;27;103009;-66
2021/11/27 02:58:47;;;;;;;3.80;3.50;;;;;;;4.89;73.80;95943.00;5001081;27;103149;-63
2021/11/27 03:01:16;;;;;;;4.35;3.67;;;;;;;4.81;74.13;95941.13;4999664;27;103205;-66
2021/11/27 03:03:44;;;;;;;3.70;3.40;;;;;;;4.86;73.80;95944.13;5011453;27;104245;-65
2021/11/27 03:06:12;;;;;;;4.28;3.53;;;;;;;4.79;74.25;95935.22;5026003;27;103264;-66
2021/11/27 03:08:41;;;;;;;3.83;3.50;;;;;;;4.83;74.23;95947.00;5025527;27;102806;-66
2021/11/27 03:11:11;;;;;;;3.83;3.47;;;;;;;4.77;74.06;95957.25;5005145;27;102802;-63
2021/11/27 03:13:41;;;;;;;4.03;3.63;;;;;;;4.63;74.59;95950.66;5006330;27;104163;-63
2021/11/27 03:16:10;;;;;;;4.03;3.72;;;;;;;4.70;74.30;95946.50;5007396;27;106018;-63
2021/11/27 03:18:39;;;;;;;3.75;3.45;;;;;;;4.80;74.67;95934.22;5009470;27;102941;-65
2021/11/27 03:21:07;;;;;;;3.90;3.60;;;;;;;4.87;73.54;95939.72;5010242;27;104591;-65
2021/11/27 03:23:36;;;;;;;4.10;3.70;;;;;;;4.73;74.51;95941.00;5003744;27;104274;-65
2021/11/27 03:26:05;;;;;;;4.03;3.73;;;;;;;4.62;74.70;95943.78;5004201;27;103187;-62
2021/11/27 03:28:35;;;;;;;4.20;3.80;;;;;;;4.59;74.83;95946.66;5004002;27;103021;-63
2021/11/27 03:31:05;;;;;;;3.70;3.40;;;;;;;4.75;74.78;95944.28;5005866;27;103046;-63
2021/11/27 03:33:34;;;;;;;3.97;3.67;;;;;;;4.49;75.49;95948.47;5006097;27;103269;-66
2021/11/27 03:36:04;;;;;;;4.78;3.78;;;;;;;4.65;74.85;95949.56;5027525;27;103277;-63
2021/11/27 03:38:34;;;;;;;4.43;3.45;;;;;;;4.82;74.67;95942.78;5012720;27;103171;-63
2021/11/27 03:41:05;;;;;;;5.38;3.90;;;;;;;4.65;74.77;95948.72;5012755;27;103527;-63
2021/11/27 03:43:37;;;;;;;4.27;3.87;;;;;;;4.57;75.56;95948.59;5013044;27;104542;-63
2021/11/27 03:46:05;;;;;;;4.00;3.60;;;;;;;4.83;74.92;95943.59;5011439;27;104738;-63
2021/11/27 03:48:35;;;;;;;3.75;3.40;;;;;;;4.93;75.40;95942.59;5008545;27;102763;-63
2021/11/27 03:51:15;;;;;;;4.05;3.75;;;;;;;4.97;75.81;95937.91;5005473;27;102956;-63
2021/11/27 03:53:45;;;;;;;4.10;3.70;;;;;;;4.68;77.28;95938.00;5000804;27;103506;-63
2021/11/27 03:56:17;;;;;;;3.63;3.33;;;;;;;4.63;77.79;95942.81;5011522;27;103263;-63
2021/11/27 03:58:50;;;;;;;4.63;4.00;;;;;;;4.53;78.35;95947.22;5016388;27;102926;-63
2021/11/27 04:01:20;;;;;;;3.78;3.47;;;;;;;4.55;78.64;95948.72;5019291;27;102793;-64
2021/11/27 04:03:51;;;;;;;4.63;4.15;;;;;;;4.70;77.96;95946.50;5019945;27;103198;-63
2021/11/27 04:06:22;;;;;;;4.35;3.95;;;;;;;4.48;78.32;95944.22;5011976;27;103348;-66
2021/11/27 04:08:56;;;;;;;4.00;3.63;;;;;;;4.56;78.20;95947.78;5001464;27;102837;-65
2021/11/27 04:11:25;;;;;;;4.00;3.60;;;;;;;4.51;78.17;95946.53;5005889;27;102785;-63
2021/11/27 04:13:55;;;;;;;4.20;3.42;;;;;;;4.65;77.93;95940.88;5008853;27;105174;-63
2021/11/27 04:16:24;;;;;;;3.63;3.33;;;;;;;4.69;77.41;95944.84;5005586;27;103204;-63
2021/11/27 04:18:52;;;;;;;3.80;3.50;;;;;;;4.55;77.72;95942.66;5002794;27;102911;-63
2021/11/27 04:21:21;;;;;;;3.77;3.47;;;;;;;4.33;78.51;95935.13;5011174;27;104239;-63
2021/11/27 04:23:50;;;;;;;3.80;3.20;;;;;;;4.45;77.89;95931.41;5010563;27;105354;-63
2021/11/27 04:26:22;;;;;;;3.00;2.70;;;;;;;4.37;78.23;95934.75;5004880;27;105161;-63
2021/11/27 04:28:52;;;;;;;3.50;3.20;;;;;;;4.62;77.71;95941.16;5001830;27;103022;-63
2021/11/27 04:31:23;;;;;;;3.30;3.00;;;;;;;4.40;78.43;95939.69;5009781;27;103034;-63
2021/11/27 04:33:54;;;;;;;3.45;3.10;;;;;;;4.35;78.73;95935.84;5032079;27;103577;-63
2021/11/27 04:36:23;;;;;;;3.33;3.03;;;;;;;4.44;78.69;95937.59;5007673;27;103592;-63
2021/11/27 04:38:53;;;;;;;2.97;2.78;;;;;;;4.34;79.04;95947.25;5008084;27;103270;-63
2021/11/27 04:41:23;;;;;;;2.97;2.70;;;;;;;4.51;78.47;95951.78;5009634;27;104243;-63
2021/11/27 04:43:53;;;;;;;3.10;2.80;;;;;;;4.55;78.30;95947.91;5014017;27;103198;-63
2021/11/27 04:46:23;;;;;;;2.90;2.60;;;;;;;4.80;77.80;95963.00;5012533;27;103569;-63
2021/11/27 04:48:51;;;;;;;3.03;2.60;;;;;;;4.87;77.29;95953.63;5005350;27;102809;-63
2021/11/27 04:51:20;;;;;;;2.40;2.20;;;;;;;4.90;76.90;95948.13;5004653;27;103691;-63
2021/11/27 04:53:48;;;;;;;2.55;2.35;;;;;;;4.73;77.72;95959.31;5007767;27;102961;-66
2021/11/27 04:56:16;;;;;;;2.40;2.20;;;;;;;4.87;78.06;95958.84;5024867;27;103218;-66
2021/11/27 04:58:45;;;;;;;2.38;2.17;;;;;;;4.66;78.52;95961.66;5005904;27;102969;-65
2021/11/27 05:01:13;;;;;;;2.30;2.10;;;;;;;4.79;77.96;95961.34;5005587;27;104000;-63
2021/11/27 05:03:52;;;;;;;2.40;2.20;;;;;;;4.79;78.00;95966.59;5007986;27;104084;-62
2021/11/27 05:06:20;;;;;;;2.30;2.05;;;;;;;4.54;79.64;95967.19;5021518;27;103190;-63
2021/11/27 05:08:48;;;;;;;2.08;1.92;;;;;;;4.76;78.84;95966.03;5010156;27;102716;-62
2021/11/27 05:11:18;;;;;;;2.00;1.80;;;;;;;4.92;78.47;95956.63;5009890;27;104193;-63
2021/11/27 05:13:49;;;;;;;2.20;1.90;;;;;;;4.72;78.85;95957.63;5022511;27;103271;-62
2021/11/27 05:16:17;;;;;;;1.97;1.77;;;;;;;4.79;78.97;95956.13;5015654;27;103624;-62
2021/11/27 05:18:46;;;;;;;2.00;1.80;;;;;;;4.84;78.35;95961.75;5011451;27;102723;-63
2021/11/27 05:21:53;;;;;;;2.00;1.67;;;;;;;4.93;78.62;95957.47;5014029;27;104189;-66
2021/11/27 05:24:22;;;;;;;2.50;1.90;;;;;;;5.00;78.46;95958.53;5012156;27;105152;-66
2021/11/27 05:27:10;;;;;;;2.00;1.67;;;;;;;4.76;78.34;95961.63;5016082;27;103169;-66
2021/11/27 05:29:44;;;;;;;1.58;1.48;;;;;;;4.99;78.42;95957.72;5023539;27;102952;-67
2021/11/27 05:32:26;;;;;;;1.52;1.42;;;;;;;4.95;78.29;95953.75;5008169;27;103046;-65
2021/11/27 05:34:57;;;;;;;1.60;1.50;;;;;;;5.04;77.88;95971.19;5007972;27;103243;-63
2021/11/27 05:37:26;;;;;;;1.40;1.30;;;;;;;5.08;78.22;95969.94;5023773;27;103243;-66
2021/11/27 05:39:55;;;;;;;1.45;1.35;;;;;;;5.00;78.24;95964.59;5015985;27;102818;-66
2021/11/27 05:42:24;;;;;;;1.50;1.30;;;;;;;5.00;78.29;95967.22;5009130;27;104796;-63
2021/11/27 05:44:54;;;;;;;1.30;1.20;;;;;;;4.96;78.59;95973.72;5009106;27;103155;-63
2021/11/27 05:47:24;;;;;;;1.50;1.40;;;;;;;4.94;78.22;95986.09;5011940;27;105773;-63
2021/11/27 05:49:54;;;;;;;1.33;1.23;;;;;;;4.97;78.82;95974.53;5026433;27;102760;-63
2021/11/27 05:52:41;;;;;;;1.30;1.20;;;;;;;5.21;77.59;95975.69;5009900;27;104678;-63
2021/11/27 05:55:09;;;;;;;1.90;1.30;;;;;;;5.08;78.30;95977.78;5028709;27;103326;-63
2021/11/27 05:57:42;;;;;;;1.48;1.38;;;;;;;5.00;78.53;95972.44;5029751;27;103353;-63
2021/11/27 06:00:11;;;;;;;1.40;1.30;;;;;;;5.07;78.32;95975.31;5027373;27;102749;-68
2021/11/27 06:02:39;;;;;;;1.40;1.30;;;;;;;4.66;80.14;95976.50;5035061;27;102847;-67
2021/11/27 06:05:09;;;;;;;1.50;1.40;;;;;;;4.89;79.39;95982.25;5024085;27;103276;-66
2021/11/27 06:07:38;;;;;;;1.27;1.17;;;;;;;5.11;79.26;95980.13;5041510;27;103217;-66
2021/11/27 06:10:08;;;;;;;1.48;1.20;;;;;;;4.87;79.98;95979.78;5040298;27;102628;-66
2021/11/27 06:12:40;;;;;;;1.50;1.35;;;;;;;4.66;80.58;95981.72;5024000;27;102942;-66
2021/11/27 06:15:08;;;;;;;1.60;1.25;;;;;;;4.96;79.48;95978.13;5038454;27;104026;-66
2021/11/27 06:17:39;;;;;;;1.07;0.97;;;;;;;5.01;79.03;95979.34;5042291;27;103214;-63
2021/11/27 06:20:08;;;;;;;1.17;1.08;;;;;;;4.86;79.51;95985.97;5041932;27;102896;-66
2021/11/27 06:22:36;;;;;;;1.20;1.10;;;;;;;4.92;79.90;95980.19;5040410;27;102991;-66
2021/11/27 06:25:24;;;;;;;1.37;1.10;;;;;;;4.90;80.38;95974.28;5042012;27;103226;-67
2021/11/27 06:27:54;;;;;;;1.30;1.20;;;;;;;5.06;79.09;95987.59;5041201;27;103237;-66
2021/11/27 06:30:23;;;;;;;1.42;1.33;;;;;;;5.33;78.43;95985.97;5018930;27;103119;-64
2021/11/27 06:32:51;;;;;;;1.60;1.10;;;;;;;5.34;78.06;95985.81;5020199;27;103827;-67
2021/11/27 06:35:19;;;;;;;1.30;1.13;;;;;;;5.48;77.73;95989.75;5031499;27;104201;-66
2021/11/27 06:37:47;;;;;;;1.25;1.15;;;;;;;5.34;78.08;95992.84;5041293;27;103560;-64
2021/11/27 06:40:15;;;;;;;1.20;1.10;;;;;;;5.48;77.38;95985.34;5042645;27;102637;-64
2021/11/27 06:43:07;;;;;;;1.25;1.15;;;;;;;5.44;77.57;95981.38;5030999;27;103049;-64
2021/11/27 06:46:00;;;;;;;1.27;1.13;;;;;;;5.46;77.47;95984.69;5015342;27;103299;-66
2021/11/27 06:48:30;;;;;;;1.40;0.93;;;;;;;5.34;77.54;95991.06;5018373;27;103264;-65
2021/11/27 06:50:58;;;;;;;1.38;1.08;;;;;;;5.46;77.49;95999.56;5042804;27;102652;-66
2021/11/27 06:53:26;;;;;;;1.10;1.00;;;;;;;5.16;78.95;95998.03;5020014;27;103043;-65
2021/11/27 06:55:55;;;;;;;1.47;1.13;;;;;;;5.24;78.43;96004.19;5042536;27;103720;-65
2021/11/27 06:58:24;;;;;;;1.05;0.90;;;;;;;5.34;78.69;96005.94;5025467;27;106250;-64
2021/11/27 07:01:09;;;;;;;1.17;0.95;;;;;;;5.54;77.40;96013.59;5022261;27;102705;-64
2021/11/27 07:03:39;;;;;;;1.20;1.00;;;;;;;5.51;77.59;96010.41;5043238;27;102909;-66
2021/11/27 07:06:45;;;;;;;1.50;1.10;;;;;;;5.46;78.27;96013.47;5010837;27;103223;-64
2021/11/27 07:09:14;;;;;;;1.75;1.27;;;;;;;5.39;77.88;96016.81;5024473;27;103417;-64
2021/11/27 07:12:06;;;;;;;1.60;1.25;;;;;;;5.49;77.46;96017.59;5022190;27;102968;-66
2021/11/27 07:14:35;;;;;;;1.30;1.10;;;;;;;5.46;77.36;96025.75;5024318;27;102855;-64
2021/11/27 07:17:03;;;;;;;1.35;1.25;;;;;;;5.58;77.58;96038.53;5041142;27;103307;-65
2021/11/27 07:19:32;;;;;;;1.30;1.20;;;;;;;5.40;78.25;96039.41;5040844;27;103187;-65
2021/11/27 07:22:00;;;;;;;1.83;1.60;;;;;;;5.38;78.72;96043.97;5041689;27;102837;-64
2021/11/27 07:24:28;;;;;;;1.20;1.10;;;;;;;5.10;79.31;96050.94;5041707;27;102714;-65
2021/11/27 07:26:59;;;;;;;1.40;1.00;;;;;;;5.30;78.85;96060.41;5035471;27;103337;-64
2021/11/27 07:29:32;;;;;;;1.35;1.10;;;;;;;5.38;78.80;96062.28;5019465;27;103005;-64
2021/11/27 07:32:01;;;;;;;1.35;1.10;;;;;;;5.48;78.42;96057.84;5041714;27;102874;-65
2021/11/27 07:34:29;;;;;;;1.40;1.30;;;;;;;5.71;77.74;96072.22;5032856;27;103859;-63
2021/11/27 07:36:57;;;;;;;1.30;1.20;;;;;;;5.58;78.57;96069.13;5029629;27;103211;-63
2021/11/27 07:39:25;;;;;;;2.00;1.30;;;;;;;5.04;79.21;96080.28;5023939;27;103172;-62
2021/11/27 07:41:53;;;;;;;1.27;1.15;;;;;;;5.46;78.34;96085.97;5041526;27;102753;-63
2021/11/27 07:44:35;;;;;;;1.50;1.20;;;;;;;5.31;78.42;96082.97;5039557;27;103842;-62
2021/11/27 07:47:23;;;;;;;1.98;1.35;;;;;;;5.37;78.31;96090.25;5033146;27;103239;-62
2021/11/27 07:50:11;;;;;;;1.35;1.15;;;;;;;5.24;79.23;96095.81;5041752;27;103245;-62
2021/11/27 07:52:57;;;;;;;1.30;1.10;;;;;;;5.43;78.37;96089.69;5040755;27;102594;-63
2021/11/27 07:55:27;;;;;;;1.50;1.40;;;;;;;5.33;78.52;96090.69;5023953;27;102763;-63
2021/11/27 07:57:55;;;;;;;1.50;1.40;;;;;;;5.52;77.86;96096.72;5037662;27;104069;-63
2021/11/27 08:00:26;;;;;;;2.03;1.60;;;;;;;5.48;77.97;96090.09;5039190;27;103245;-64
2021/11/27 08:02:55;;;;;;;2.13;1.88;;;;;;;5.68;77.25;96098.72;5038033;27;102924;-64
2021/11/27 08:05:23;;;;;;;2.40;1.60;;;;;;;5.73;77.28;96105.16;5040121;27;103000;-64
2021/11/27 08:07:51;;;;;;;1.85;1.63;;;;;;;5.55;77.71;96112.13;5041661;27;103189;-63
2021/11/27 08:10:19;;;;;;;1.90;1.80;;;;;;;5.28;78.25;96105.00;5038299;27;103233;-63
2021/11/27 08:12:47;;;;;;;1.70;1.50;;;;;;;5.50;78.80;96105.69;5039398;27;102638;-64
2021/11/27 08:15:15;;;;;;;1.60;1.50;;;;;;;6.06;76.39;96109.09;5034389;27;104047;-64
2021/11/27 08:17:43;;;;;;;2.55;1.50;;;;;;;6.07;76.82;96102.84;5033905;27;103372;-64
2021/11/27 08:20:13;;;;;;;1.60;1.50;;;;;;;6.47;75.10;96104.28;5014046;27;103218;-64
2021/11/27 08:22:42;;;;;;;1.70;1.50;;;;;;;6.04;76.44;96113.63;5038166;27;103685;-63
2021/11/27 08:25:10;;;;;;;2.15;1.63;;;;;;;6.11;76.79;96113.88;5034940;27;102749;-63
2021/11/27 08:27:38;;;;;;;1.55;1.40;;;;;;;6.40;75.55;96107.50;5039752;27;103984;-63
2021/11/27 08:30:09;;;;;;;1.50;1.40;;;;;;;6.48;75.35;96108.56;5037498;27;103605;-66
2021/11/27 08:32:37;;;;;;;1.70;1.60;;;;;;;6.17;76.65;96122.00;5041153;27;102679;-65
2021/11/27 08:35:07;;;;;;;1.73;1.63;;;;;;;6.10;76.72;96131.41;5020423;27;104231;-65
2021/11/27 08:37:37;;;;;;;1.73;1.40;;;;;;;6.60;75.54;96128.34;5037640;27;103223;-66
2021/11/27 08:40:07;;;;;;;1.40;1.30;;;;;;;6.34;76.25;96131.66;5039056;27;103296;-65
2021/11/27 08:42:36;;;;;;;2.58;1.67;;;;;;;6.11;76.54;96138.31;5035906;27;102631;-65
2021/11/27 08:45:04;;;;;;;2.00;1.40;;;;;;;6.58;74.63;96127.69;5017228;27;104069;-65
2021/11/27 08:47:32;;;;;;;1.48;1.38;;;;;;;6.83;74.61;96122.53;5039139;27;103254;-65
2021/11/27 08:50:01;;;;;;;1.30;1.20;;;;;;;7.13;73.89;96125.75;5025401;27;103195;-66
2021/11/27 08:52:29;;;;;;;1.58;1.40;;;;;;;7.20;73.07;96125.00;5038065;27;103073;-65
2021/11/27 08:55:00;;;;;;;1.75;1.50;;;;;;;7.02;73.23;96132.03;5040735;27;102604;-66
2021/11/27 08:57:28;;;;;;;3.00;1.15;;;;;;;7.09;72.04;96127.03;5036322;27;103434;-64
2021/11/27 08:59:56;;;;;;;1.20;1.10;;;;;;;7.20;72.35;96129.41;5022141;27;103718;-64
2021/11/27 09:02:24;;;;;;;1.40;1.30;;;;;;;6.91;73.04;96121.78;5040598;27;102731;-64
2021/11/27 09:04:53;;;;;;;2.03;1.30;;;;;;;7.29;71.32;96133.75;5038817;27;103965;-64
2021/11/27 09:07:21;;;;;;;1.30;1.10;;;;;;;6.94;72.53;96139.84;5038534;27;103211;-64
2021/11/27 09:09:49;;;;;;;1.55;1.13;;;;;;;7.15;71.28;96137.75;5036692;27;103293;-64
2021/11/27 09:12:20;;;;;;;1.77;1.13;;;;;;;7.00;71.47;96139.25;5019461;27;102812;-64
2021/11/27 09:14:50;;;;;;;1.33;1.00;;;;;;;7.04;71.08;96153.75;5038457;27;102707;-64
2021/11/27 09:17:18;;;;;;;1.60;0.90;;;;;;;6.61;72.03;96154.44;5031436;27;103216;-64
2021/11/27 09:19:47;;;;;;;1.30;1.00;;;;;;;6.49;72.84;96154.78;5036837;27;103665;-64
2021/11/27 09:22:15;;;;;;;1.47;0.97;;;;;;;6.44;72.75;96163.09;5016738;27;103992;-64
2021/11/27 09:24:43;;;;;;;1.20;0.90;;;;;;;6.10;73.98;96165.47;5038920;27;103637;-64
2021/11/27 09:27:11;;;;;;;1.50;0.80;;;;;;;6.56;73.23;96163.72;5014322;27;103173;-64
2021/11/27 09:29:41;;;;;;;1.00;0.70;;;;;;;6.90;72.02;96152.47;5041545;27;103352;-64
2021/11/27 09:32:09;;;;;;;1.23;0.90;;;;;;;7.20;71.30;96159.13;5036977;27;102597;-64
2021/11/27 09:34:39;;;;;;;1.60;1.00;;;;;;;7.02;71.55;96168.00;5031457;27;102648;-64
2021/11/27 09:37:12;;;;;;;1.90;1.07;;;;;;;7.13;71.78;96173.81;5033842;27;103446;-64
2021/11/27 09:39:41;;;;;;;1.70;0.80;;;;;;;7.06;72.51;96170.16;5035180;27;103561;-64
2021/11/27 09:42:09;;;;;;;1.67;1.20;;;;;;;7.19;72.03;96175.84;5032123;27;102570;-65
2021/11/27 09:44:38;;;;;;;1.33;0.90;;;;;;;7.58;71.36;96171.91;5017576;27;102711;-62
2021/11/27 09:47:09;;;;;;;1.10;1.00;;;;;;;7.33;71.86;96171.84;5028955;27;103204;-65
2021/11/27 09:49:38;;;;;;;1.30;1.10;;;;;;;7.21;71.57;96168.66;5036577;27;103184;-65
2021/11/27 09:52:06;;;;;;;1.20;1.10;;;;;;;7.14;72.07;96172.84;5038360;27;102846;-65
2021/11/27 09:54:35;;;;;;;1.57;1.00;;;;;;;7.17;72.24;96171.72;5038635;27;103830;-65
2021/11/27 09:57:06;;;;;;;1.83;1.10;;;;;;;7.20;73.51;96161.75;5041139;27;104353;-66
2021/11/27 09:59:34;;;;;;;1.15;0.95;;;;;;;7.21;72.61;96152.91;5043293;27;102581;-65
2021/11/27 10:02:06;;;;;;;1.92;1.00;;;;;;;7.29;72.64;96157.41;5043266;27;102557;-65
2021/11/27 10:04:39;;;;;;;2.03;0.88;;;;;;;7.41;71.48;96153.56;5041830;27;103041;-64
2021/11/27 10:07:11;;;;;;;2.20;1.20;;;;;;;6.78;72.89;96160.69;5042190;27;104434;-65
2021/11/27 10:09:42;;;;;;;1.85;1.20;;;;;;;7.47;71.33;96147.69;5022155;27;104188;-65
2021/11/27 10:12:12;;;;;;;2.17;1.10;;;;;;;7.42;71.45;96145.53;5040405;27;102508;-63
2021/11/27 10:14:41;;;;;;;1.67;0.98;;;;;;;7.92;69.82;96158.00;5040476;27;102606;-63
2021/11/27 10:17:13;;;;;;;1.60;1.00;;;;;;;7.93;69.46;96154.41;5019622;27;103235;-64
2021/11/27 10:19:52;;;;;;;1.10;0.70;;;;;;;8.21;69.12;96155.88;5039426;27;103147;-64
2021/11/27 10:22:23;;;;;;;1.30;1.00;;;;;;;7.82;69.65;96155.50;5036938;27;102651;-68
2021/11/27 10:24:52;;;;;;;1.57;1.00;;;;;;;7.49;70.31;96151.78;5041820;27;103494;-69
2021/11/27 10:27:23;;;;;;;1.95;0.90;;;;;;;7.38;70.55;96144.16;5041007;27;104074;-69
2021/11/27 10:30:00;;;;;;;1.38;1.00;;;;;;;8.00;68.72;96155.44;5040982;27;103200;-69
2021/11/27 10:32:36;;;;;;;1.63;0.90;;;;;;;8.22;68.11;96154.06;5036204;27;102706;-69
2021/11/27 10:35:08;;;;;;;1.30;1.00;;;;;;;8.15;68.54;96151.22;5040018;27;102781;-68
2021/11/27 10:37:41;;;;;;;3.25;1.20;;;;;;;8.01;68.88;96157.06;5040119;27;103205;-68
2021/11/27 10:40:12;;;;;;;1.17;1.05;;;;;;;8.14;68.36;96163.53;5039169;27;103230;-68
2021/11/27 10:42:45;;;;;;;1.67;1.10;;;;;;;7.97;68.89;96161.81;5038743;27;102968;-68
2021/11/27 10:45:19;;;;;;;1.20;1.02;;;;;;;7.88;68.96;96170.66;5038794;27;102826;-69
2021/11/27 10:47:48;;;;;;;2.35;1.30;;;;;;;7.65;69.39;96172.13;5039354;27;103262;-68
2021/11/27 10:50:20;;;;;;;2.08;1.10;;;;;;;7.58;68.76;96179.78;5041349;27;103220;-68
2021/11/27 10:52:49;;;;;;;2.47;1.20;;;;;;;7.71;68.52;96178.56;5029815;27;102617;-69
2021/11/27 10:55:20;;;;;;;2.33;1.48;;;;;;;7.32;69.13;96181.56;4997117;27;102835;-69
2021/11/27 10:57:51;;;;;;;1.70;1.30;;;;;;;7.44;69.27;96182.97;5013798;27;103602;-68
2021/11/27 11:00:36;;;;;;;2.22;1.20;;;;;;;7.18;69.17;96189.13;5033127;27;103308;-69
2021/11/27 11:03:23;;;;;;;2.10;1.30;;;;;;;7.14;69.62;96193.03;5034121;27;102794;-69
2021/11/27 11:05:54;;;;;;;2.63;1.40;;;;;;;7.53;68.57;96184.69;5032154;27;103764;-69
2021/11/27 11:08:36;;;;;;;1.73;1.30;;;;;;;7.61;68.16;96185.72;5030249;27;103039;-69
2021/11/27 11:11:25;;;;;;;1.33;1.17;;;;;;;7.58;68.21;96194.72;4978644;28;103224;-68
2021/11/27 11:13:55;;;;;;;1.70;1.02;;;;;;;7.54;68.15;96193.38;5028857;27;102597;-63
2021/11/27 11:16:26;;;;;;;1.55;1.05;;;;;;;7.50;68.37;96189.41;5009852;27;102687;-63
2021/11/27 11:19:12;;;;;;;2.50;1.07;;;;;;;7.26;67.93;96187.41;5026456;27;104041;-63
2021/11/27 11:22:08;;;;;;;2.47;1.00;;;;;;;7.28;68.21;96185.44;5029151;27;103837;-64
2021/11/27 11:24:37;;;;;;;2.87;1.30;;;;;;;7.31;68.04;96182.53;5029904;27;102653;-64
2021/11/27 11:27:07;;;;;;;1.00;0.90;;;;;;;7.25;68.41;96190.16;5006279;27;104145;-64
2021/11/27 11:29:43;;;;;;;1.17;0.90;;;;;;;7.45;67.18;96187.25;5012923;27;103085;-67
2021/11/27 11:32:16;;;;;;;2.10;1.20;;;;;;;7.20;67.73;96192.44;5030231;27;104133;-64
2021/11/27 11:34:45;;;;;;;1.58;0.93;;;;;;;7.29;67.59;96192.38;5038690;27;102704;-64
2021/11/27 11:37:15;;;;;;;1.55;1.10;;;;;;;7.45;67.88;96191.66;5021840;27;103056;-64
2021/11/27 11:39:43;;;;;;;1.77;1.10;;;;;;;7.39;68.26;96195.72;5037997;27;103357;-63
2021/11/27 11:42:11;;;;;;;2.03;1.10;;;;;;;7.84;66.93;96189.50;5038797;27;103252;-63
2021/11/27 11:44:41;;;;;;;1.87;1.10;;;;;;;7.68;67.18;96194.63;5017750;27;104401;-63
2021/11/27 11:47:10;;;;;;;1.80;0.90;;;;;;;7.06;68.60;96206.06;5033559;27;102959;-63
2021/11/27 11:49:40;;;;;;;2.10;1.30;;;;;;;7.35;69.21;96207.53;5027693;27;104129;-64
2021/11/27 11:52:16;;;;;;;1.50;1.10;;;;;;;6.81;74.11;96228.63;5012853;27;103642;-63